sensor_id;sensor_type;location;lat;lon;timestamp;P1;durP1;ratioP1;P2;durP2;ratioP2
13611;SDS011;6877;51.436;6.774;2023-02-28T00:01:47;11.27;;;7.35;;
13611;SDS011;6877;51.436;6.774;2023-02-28T00:04:13;24.92;;;7.70;;
13611;SDS011;6877;51.436;6.774;2023-02-28T00:06:40;11.85;;;7.38;;
13611;SDS011;6877;51.436;6.774;2023-02-28T00:09:12;13.88;;;7.70;;
13611;SDS011;6877;51.436;6.774;2023-02-28T00:11:39;12.90;;;8.00;;
13611;SDS011;6877;51.436;6.774;2023-02-28T00:14:05;12.43;;;7.15;;
13611;SDS011;6877;51.436;6.774;2023-02-28T00:16:32;16.33;;;8.43;;
13611;SDS011;6877;51.436;6.774;2023-02-28T00:18:58;13.75;;;7.80;;
13611;SDS011;6877;51.436;6.774;2023-02-28T00:21:30;14.32;;;8.30;;
13611;SDS011;6877;51.436;6.774;2023-02-28T00:24:01;19.30;;;7.63;;
13611;SDS011;6877;51.436;6.774;2023-02-28T00:26:33;12.52;;;7.45;;
13611;SDS011;6877;51.436;6.774;2023-02-28T00:29:04;11.45;;;8.13;;
13611;SDS011;6877;51.436;6.774;2023-02-28T00:31:30;11.25;;;7.60;;
13611;SDS011;6877;51.436;6.774;2023-02-28T00:34:02;15.02;;;7.75;;
13611;SDS011;6877;51.436;6.774;2023-02-28T00:36:28;12.18;;;7.05;;
13611;SDS011;6877;51.436;6.774;2023-02-28T00:38:55;9.98;;;6.88;;
13611;SDS011;6877;51.436;6.774;2023-02-28T00:41:21;16.75;;;8.30;;
13611;SDS011;6877;51.436;6.774;2023-02-28T00:43:47;12.70;;;7.43;;
13611;SDS011;6877;51.436;6.774;2023-02-28T00:46:19;17.08;;;9.18;;
13611;SDS011;6877;51.436;6.774;2023-02-28T00:48:45;16.17;;;8.10;;
13611;SDS011;6877;51.436;6.774;2023-02-28T00:51:12;12.93;;;6.95;;
13611;SDS011;6877;51.436;6.774;2023-02-28T00:53:43;14.48;;;8.13;;
13611;SDS011;6877;51.436;6.774;2023-02-28T00:56:10;26.80;;;10.02;;
13611;SDS011;6877;51.436;6.774;2023-02-28T00:58:36;15.75;;;7.88;;
13611;SDS011;6877;51.436;6.774;2023-02-28T01:01:03;13.25;;;8.15;;
13611;SDS011;6877;51.436;6.774;2023-02-28T01:03:34;15.45;;;7.45;;
13611;SDS011;6877;51.436;6.774;2023-02-28T01:06:01;19.05;;;7.82;;
13611;SDS011;6877;51.436;6.774;2023-02-28T01:08:32;11.13;;;7.50;;
13611;SDS011;6877;51.436;6.774;2023-02-28T01:11:06;10.82;;;7.15;;
13611;SDS011;6877;51.436;6.774;2023-02-28T01:13:37;11.95;;;8.02;;
13611;SDS011;6877;51.436;6.774;2023-02-28T01:16:04;11.50;;;7.15;;
13611;SDS011;6877;51.436;6.774;2023-02-28T01:18:36;13.05;;;7.03;;
13611;SDS011;6877;51.436;6.774;2023-02-28T01:21:07;10.57;;;6.07;;
13611;SDS011;6877;51.436;6.774;2023-02-28T01:23:36;9.63;;;6.57;;
13611;SDS011;6877;51.436;6.774;2023-02-28T01:26:10;12.73;;;6.75;;
13611;SDS011;6877;51.436;6.774;2023-02-28T01:28:47;14.23;;;7.30;;
13611;SDS011;6877;51.436;6.774;2023-02-28T01:31:20;12.40;;;6.47;;
13611;SDS011;6877;51.436;6.774;2023-02-28T01:33:52;14.75;;;6.20;;
13611;SDS011;6877;51.436;6.774;2023-02-28T01:36:24;12.27;;;6.32;;
13611;SDS011;6877;51.436;6.774;2023-02-28T01:38:56;9.30;;;5.60;;
13611;SDS011;6877;51.436;6.774;2023-02-28T01:41:23;8.20;;;5.55;;
13611;SDS011;6877;51.436;6.774;2023-02-28T01:43:53;13.80;;;6.15;;
13611;SDS011;6877;51.436;6.774;2023-02-28T01:46:20;10.10;;;6.25;;
13611;SDS011;6877;51.436;6.774;2023-02-28T01:51:26;9.38;;;5.47;;
13611;SDS011;6877;51.436;6.774;2023-02-28T01:54:05;13.38;;;6.40;;
13611;SDS011;6877;51.436;6.774;2023-02-28T01:56:46;9.68;;;5.10;;
13611;SDS011;6877;51.436;6.774;2023-02-28T01:59:22;9.45;;;5.50;;
13611;SDS011;6877;51.436;6.774;2023-02-28T02:02:01;12.55;;;6.65;;
13611;SDS011;6877;51.436;6.774;2023-02-28T02:04:32;8.63;;;5.38;;
13611;SDS011;6877;51.436;6.774;2023-02-28T02:07:03;11.57;;;6.25;;
13611;SDS011;6877;51.436;6.774;2023-02-28T02:09:35;10.00;;;5.30;;
13611;SDS011;6877;51.436;6.774;2023-02-28T02:12:15;10.25;;;6.07;;
13611;SDS011;6877;51.436;6.774;2023-02-28T02:18:00;9.75;;;5.22;;
13611;SDS011;6877;51.436;6.774;2023-02-28T02:42:46;10.30;;;5.00;;
13611;SDS011;6877;51.436;6.774;2023-02-28T02:45:24;10.68;;;5.20;;
13611;SDS011;6877;51.436;6.774;2023-02-28T02:47:55;11.27;;;6.63;;
13611;SDS011;6877;51.436;6.774;2023-02-28T02:50:31;12.18;;;5.25;;
13611;SDS011;6877;51.436;6.774;2023-02-28T02:53:03;11.90;;;5.85;;
13611;SDS011;6877;51.436;6.774;2023-02-28T02:55:40;14.30;;;5.05;;
13611;SDS011;6877;51.436;6.774;2023-02-28T02:58:15;8.80;;;5.65;;
13611;SDS011;6877;51.436;6.774;2023-02-28T03:00:50;7.97;;;4.50;;
13611;SDS011;6877;51.436;6.774;2023-02-28T03:03:20;8.75;;;5.20;;
13611;SDS011;6877;51.436;6.774;2023-02-28T03:06:17;7.15;;;4.93;;
13611;SDS011;6877;51.436;6.774;2023-02-28T03:08:48;8.82;;;4.90;;
13611;SDS011;6877;51.436;6.774;2023-02-28T03:11:15;11.07;;;5.15;;
13611;SDS011;6877;51.436;6.774;2023-02-28T03:28:19;9.27;;;5.47;;
13611;SDS011;6877;51.436;6.774;2023-02-28T03:30:57;11.20;;;5.82;;
13611;SDS011;6877;51.436;6.774;2023-02-28T03:36:08;10.43;;;6.60;;
13611;SDS011;6877;51.436;6.774;2023-02-28T03:38:49;10.77;;;6.82;;
13611;SDS011;6877;51.436;6.774;2023-02-28T03:41:21;14.10;;;6.78;;
13611;SDS011;6877;51.436;6.774;2023-02-28T03:43:59;11.13;;;6.10;;
13611;SDS011;6877;51.436;6.774;2023-02-28T03:46:38;9.65;;;6.32;;
13611;SDS011;6877;51.436;6.774;2023-02-28T03:49:15;10.00;;;6.35;;
13611;SDS011;6877;51.436;6.774;2023-02-28T03:51:51;16.42;;;6.47;;
13611;SDS011;6877;51.436;6.774;2023-02-28T03:54:26;15.45;;;6.13;;
13611;SDS011;6877;51.436;6.774;2023-02-28T03:56:59;13.82;;;6.40;;
13611;SDS011;6877;51.436;6.774;2023-02-28T03:59:36;12.77;;;6.88;;
13611;SDS011;6877;51.436;6.774;2023-02-28T04:02:15;10.23;;;5.88;;
13611;SDS011;6877;51.436;6.774;2023-02-28T04:04:46;14.25;;;11.32;;
13611;SDS011;6877;51.436;6.774;2023-02-28T04:07:19;10.82;;;7.15;;
13611;SDS011;6877;51.436;6.774;2023-02-28T04:09:45;9.85;;;7.05;;
13611;SDS011;6877;51.436;6.774;2023-02-28T04:12:12;8.88;;;6.25;;
13611;SDS011;6877;51.436;6.774;2023-02-28T04:14:38;10.18;;;5.88;;
13611;SDS011;6877;51.436;6.774;2023-02-28T04:17:04;11.27;;;6.95;;
13611;SDS011;6877;51.436;6.774;2023-02-28T04:19:36;10.70;;;5.10;;
13611;SDS011;6877;51.436;6.774;2023-02-28T04:22:02;15.63;;;6.30;;
13611;SDS011;6877;51.436;6.774;2023-02-28T04:24:28;8.57;;;5.18;;
13611;SDS011;6877;51.436;6.774;2023-02-28T04:27:00;9.05;;;6.30;;
13611;SDS011;6877;51.436;6.774;2023-02-28T04:29:32;13.57;;;6.03;;
13611;SDS011;6877;51.436;6.774;2023-02-28T04:32:03;13.95;;;6.75;;
13611;SDS011;6877;51.436;6.774;2023-02-28T04:34:30;9.93;;;6.00;;
13611;SDS011;6877;51.436;6.774;2023-02-28T04:37:03;12.60;;;6.63;;
13611;SDS011;6877;51.436;6.774;2023-02-28T04:39:35;12.00;;;6.73;;
13611;SDS011;6877;51.436;6.774;2023-02-28T04:42:03;10.50;;;6.13;;
13611;SDS011;6877;51.436;6.774;2023-02-28T04:44:29;12.47;;;6.43;;
13611;SDS011;6877;51.436;6.774;2023-02-28T04:47:01;11.05;;;6.93;;
13611;SDS011;6877;51.436;6.774;2023-02-28T04:49:32;14.32;;;7.10;;
13611;SDS011;6877;51.436;6.774;2023-02-28T04:51:59;11.18;;;6.13;;
13611;SDS011;6877;51.436;6.774;2023-02-28T04:54:30;13.50;;;6.00;;
13611;SDS011;6877;51.436;6.774;2023-02-28T04:56:57;10.25;;;5.40;;
13611;SDS011;6877;51.436;6.774;2023-02-28T04:59:23;9.40;;;5.97;;
13611;SDS011;6877;51.436;6.774;2023-02-28T05:01:49;10.10;;;5.82;;
13611;SDS011;6877;51.436;6.774;2023-02-28T05:04:21;12.07;;;6.38;;
13611;SDS011;6877;51.436;6.774;2023-02-28T05:06:47;8.70;;;6.07;;
13611;SDS011;6877;51.436;6.774;2023-02-28T05:09:18;12.32;;;7.20;;
13611;SDS011;6877;51.436;6.774;2023-02-28T05:11:50;9.85;;;6.43;;
13611;SDS011;6877;51.436;6.774;2023-02-28T05:14:16;9.52;;;5.90;;
13611;SDS011;6877;51.436;6.774;2023-02-28T05:16:48;11.73;;;5.82;;
13611;SDS011;6877;51.436;6.774;2023-02-28T05:19:19;9.05;;;5.13;;
13611;SDS011;6877;51.436;6.774;2023-02-28T05:21:51;14.75;;;6.35;;
13611;SDS011;6877;51.436;6.774;2023-02-28T05:24:19;9.30;;;6.35;;
13611;SDS011;6877;51.436;6.774;2023-02-28T05:26:49;11.55;;;5.25;;
13611;SDS011;6877;51.436;6.774;2023-02-28T05:29:17;10.93;;;6.10;;
13611;SDS011;6877;51.436;6.774;2023-02-28T05:31:50;12.60;;;6.35;;
13611;SDS011;6877;51.436;6.774;2023-02-28T05:34:21;11.57;;;6.70;;
13611;SDS011;6877;51.436;6.774;2023-02-28T05:36:52;14.23;;;6.45;;
13611;SDS011;6877;51.436;6.774;2023-02-28T05:39:19;13.83;;;6.67;;
13611;SDS011;6877;51.436;6.774;2023-02-28T05:41:45;9.75;;;5.68;;
13611;SDS011;6877;51.436;6.774;2023-02-28T05:44:11;9.73;;;6.40;;
13611;SDS011;6877;51.436;6.774;2023-02-28T05:46:38;9.93;;;6.28;;
13611;SDS011;6877;51.436;6.774;2023-02-28T05:49:09;31.53;;;7.07;;
13611;SDS011;6877;51.436;6.774;2023-02-28T05:51:41;10.27;;;7.03;;
13611;SDS011;6877;51.436;6.774;2023-02-28T05:54:12;9.35;;;6.50;;
13611;SDS011;6877;51.436;6.774;2023-02-28T05:56:39;11.32;;;7.35;;
13611;SDS011;6877;51.436;6.774;2023-02-28T05:59:06;10.57;;;6.32;;
13611;SDS011;6877;51.436;6.774;2023-02-28T06:01:42;12.20;;;8.52;;
13611;SDS011;6877;51.436;6.774;2023-02-28T06:04:14;10.20;;;6.32;;
13611;SDS011;6877;51.436;6.774;2023-02-28T06:06:46;12.07;;;6.43;;
13611;SDS011;6877;51.436;6.774;2023-02-28T06:09:18;14.02;;;6.55;;
13611;SDS011;6877;51.436;6.774;2023-02-28T06:11:50;10.93;;;6.13;;
13611;SDS011;6877;51.436;6.774;2023-02-28T06:14:21;8.03;;;6.73;;
13611;SDS011;6877;51.436;6.774;2023-02-28T06:16:48;12.98;;;6.70;;
13611;SDS011;6877;51.436;6.774;2023-02-28T06:19:19;14.65;;;6.15;;
13611;SDS011;6877;51.436;6.774;2023-02-28T06:21:48;8.43;;;5.32;;
13611;SDS011;6877;51.436;6.774;2023-02-28T06:24:16;9.30;;;5.78;;
13611;SDS011;6877;51.436;6.774;2023-02-28T06:26:43;11.18;;;5.82;;
13611;SDS011;6877;51.436;6.774;2023-02-28T06:29:14;9.82;;;5.05;;
13611;SDS011;6877;51.436;6.774;2023-02-28T06:31:49;7.32;;;5.25;;
13611;SDS011;6877;51.436;6.774;2023-02-28T06:34:16;9.93;;;5.63;;
13611;SDS011;6877;51.436;6.774;2023-02-28T06:36:43;13.27;;;5.30;;
13611;SDS011;6877;51.436;6.774;2023-02-28T06:39:14;11.43;;;5.63;;
13611;SDS011;6877;51.436;6.774;2023-02-28T06:41:46;9.07;;;5.13;;
13611;SDS011;6877;51.436;6.774;2023-02-28T06:44:17;9.07;;;5.13;;
13611;SDS011;6877;51.436;6.774;2023-02-28T06:46:44;6.15;;;4.90;;
13611;SDS011;6877;51.436;6.774;2023-02-28T06:49:16;6.78;;;5.13;;
13611;SDS011;6877;51.436;6.774;2023-02-28T06:51:48;10.73;;;5.60;;
13611;SDS011;6877;51.436;6.774;2023-02-28T06:54:14;7.53;;;4.45;;
13611;SDS011;6877;51.436;6.774;2023-02-28T06:56:46;7.70;;;5.70;;
13611;SDS011;6877;51.436;6.774;2023-02-28T06:59:13;9.95;;;4.57;;
13611;SDS011;6877;51.436;6.774;2023-02-28T07:01:39;10.40;;;5.18;;
13611;SDS011;6877;51.436;6.774;2023-02-28T07:04:11;10.70;;;4.70;;
13611;SDS011;6877;51.436;6.774;2023-02-28T07:06:39;11.05;;;5.22;;
13611;SDS011;6877;51.436;6.774;2023-02-28T07:09:05;9.13;;;4.70;;
13611;SDS011;6877;51.436;6.774;2023-02-28T07:11:31;9.85;;;4.70;;
13611;SDS011;6877;51.436;6.774;2023-02-28T07:13:58;7.80;;;5.20;;
13611;SDS011;6877;51.436;6.774;2023-02-28T07:16:29;5.90;;;5.00;;
13611;SDS011;6877;51.436;6.774;2023-02-28T07:18:56;9.65;;;5.40;;
13611;SDS011;6877;51.436;6.774;2023-02-28T07:21:27;7.10;;;4.88;;
13611;SDS011;6877;51.436;6.774;2023-02-28T07:23:55;6.13;;;4.32;;
13611;SDS011;6877;51.436;6.774;2023-02-28T07:26:22;12.90;;;5.72;;
13611;SDS011;6877;51.436;6.774;2023-02-28T07:28:49;13.02;;;5.75;;
13611;SDS011;6877;51.436;6.774;2023-02-28T07:31:21;8.77;;;4.60;;
13611;SDS011;6877;51.436;6.774;2023-02-28T07:33:47;8.57;;;5.85;;
13611;SDS011;6877;51.436;6.774;2023-02-28T07:36:14;8.18;;;4.78;;
13611;SDS011;6877;51.436;6.774;2023-02-28T07:38:48;7.38;;;4.78;;
13611;SDS011;6877;51.436;6.774;2023-02-28T07:41:21;8.48;;;4.43;;
13611;SDS011;6877;51.436;6.774;2023-02-28T07:43:55;6.53;;;4.97;;
13611;SDS011;6877;51.436;6.774;2023-02-28T07:46:23;10.32;;;5.05;;
13611;SDS011;6877;51.436;6.774;2023-02-28T07:48:54;9.35;;;5.03;;
13611;SDS011;6877;51.436;6.774;2023-02-28T07:51:25;14.63;;;6.05;;
13611;SDS011;6877;51.436;6.774;2023-02-28T07:53:56;15.13;;;4.93;;
13611;SDS011;6877;51.436;6.774;2023-02-28T07:56:28;9.20;;;5.13;;
13611;SDS011;6877;51.436;6.774;2023-02-28T07:59:00;14.50;;;5.90;;
13611;SDS011;6877;51.436;6.774;2023-02-28T08:01:32;11.93;;;6.10;;
13611;SDS011;6877;51.436;6.774;2023-02-28T08:03:59;11.95;;;5.75;;
13611;SDS011;6877;51.436;6.774;2023-02-28T08:06:30;8.30;;;4.93;;
13611;SDS011;6877;51.436;6.774;2023-02-28T08:08:56;15.57;;;5.63;;
13611;SDS011;6877;51.436;6.774;2023-02-28T08:11:24;12.88;;;5.75;;
13611;SDS011;6877;51.436;6.774;2023-02-28T08:13:55;7.35;;;5.63;;
13611;SDS011;6877;51.436;6.774;2023-02-28T08:16:26;6.32;;;4.10;;
13611;SDS011;6877;51.436;6.774;2023-02-28T08:18:58;6.80;;;3.65;;
13611;SDS011;6877;51.436;6.774;2023-02-28T08:21:24;8.75;;;4.38;;
13611;SDS011;6877;51.436;6.774;2023-02-28T08:23:56;7.72;;;4.15;;
13611;SDS011;6877;51.436;6.774;2023-02-28T08:26:22;5.90;;;4.15;;
13611;SDS011;6877;51.436;6.774;2023-02-28T08:28:49;5.43;;;3.80;;
13611;SDS011;6877;51.436;6.774;2023-02-28T08:31:20;6.28;;;3.35;;
13611;SDS011;6877;51.436;6.774;2023-02-28T08:33:53;5.90;;;4.10;;
13611;SDS011;6877;51.436;6.774;2023-02-28T08:36:22;10.57;;;3.75;;
13611;SDS011;6877;51.436;6.774;2023-02-28T08:38:49;4.50;;;3.50;;
13611;SDS011;6877;51.436;6.774;2023-02-28T08:41:16;5.85;;;3.88;;
13611;SDS011;6877;51.436;6.774;2023-02-28T08:43:47;6.18;;;3.42;;
13611;SDS011;6877;51.436;6.774;2023-02-28T08:46:14;9.05;;;4.60;;
13611;SDS011;6877;51.436;6.774;2023-02-28T08:48:45;6.55;;;3.75;;
13611;SDS011;6877;51.436;6.774;2023-02-28T08:51:14;6.07;;;4.30;;
13611;SDS011;6877;51.436;6.774;2023-02-28T08:53:48;6.40;;;4.13;;
13611;SDS011;6877;51.436;6.774;2023-02-28T08:56:22;4.72;;;3.28;;
13611;SDS011;6877;51.436;6.774;2023-02-28T08:58:49;9.57;;;4.00;;
13611;SDS011;6877;51.436;6.774;2023-02-28T09:01:22;6.03;;;3.75;;
13611;SDS011;6877;51.436;6.774;2023-02-28T09:03:51;6.40;;;3.17;;
13611;SDS011;6877;51.436;6.774;2023-02-28T09:06:19;5.63;;;3.13;;
13611;SDS011;6877;51.436;6.774;2023-02-28T09:08:46;7.18;;;3.65;;
13611;SDS011;6877;51.436;6.774;2023-02-28T09:11:13;5.80;;;3.80;;
13611;SDS011;6877;51.436;6.774;2023-02-28T09:13:45;5.18;;;2.78;;
13611;SDS011;6877;51.436;6.774;2023-02-28T09:16:13;3.92;;;3.08;;
13611;SDS011;6877;51.436;6.774;2023-02-28T09:18:40;6.60;;;3.50;;
13611;SDS011;6877;51.436;6.774;2023-02-28T09:21:07;5.18;;;3.17;;
13611;SDS011;6877;51.436;6.774;2023-02-28T09:23:35;6.20;;;2.83;;
13611;SDS011;6877;51.436;6.774;2023-02-28T09:26:04;4.72;;;2.67;;
13611;SDS011;6877;51.436;6.774;2023-02-28T09:28:31;7.82;;;3.80;;
13611;SDS011;6877;51.436;6.774;2023-02-28T09:30:57;3.38;;;2.67;;
13611;SDS011;6877;51.436;6.774;2023-02-28T09:33:30;3.47;;;2.70;;
13611;SDS011;6877;51.436;6.774;2023-02-28T09:36:02;4.80;;;2.75;;
13611;SDS011;6877;51.436;6.774;2023-02-28T09:38:29;5.22;;;3.13;;
13611;SDS011;6877;51.436;6.774;2023-02-28T09:41:01;5.38;;;2.88;;
13611;SDS011;6877;51.436;6.774;2023-02-28T09:43:43;5.43;;;2.33;;
13611;SDS011;6877;51.436;6.774;2023-02-28T09:46:26;4.90;;;2.90;;
13611;SDS011;6877;51.436;6.774;2023-02-28T09:49:16;5.38;;;3.17;;
13611;SDS011;6877;51.436;6.774;2023-02-28T09:51:47;3.30;;;2.75;;
13611;SDS011;6877;51.436;6.774;2023-02-28T09:54:22;7.70;;;3.28;;
13611;SDS011;6877;51.436;6.774;2023-02-28T09:56:59;3.38;;;2.50;;
13611;SDS011;6877;51.436;6.774;2023-02-28T10:09:57;5.30;;;2.85;;
13611;SDS011;6877;51.436;6.774;2023-02-28T10:14:09;3.72;;;3.40;;
13611;SDS011;6877;51.436;6.774;2023-02-28T10:16:35;6.97;;;3.40;;
13611;SDS011;6877;51.436;6.774;2023-02-28T10:26:47;3.95;;;3.30;;
13611;SDS011;6877;51.436;6.774;2023-02-28T10:29:56;3.53;;;3.20;;
13611;SDS011;6877;51.436;6.774;2023-02-28T10:32:56;7.43;;;3.33;;
13611;SDS011;6877;51.436;6.774;2023-02-28T10:36:43;5.18;;;3.25;;
13611;SDS011;6877;51.436;6.774;2023-02-28T10:40:42;3.45;;;2.95;;
13611;SDS011;6877;51.436;6.774;2023-02-28T10:43:29;3.22;;;2.50;;
13611;SDS011;6877;51.436;6.774;2023-02-28T10:46:32;4.40;;;3.15;;
13611;SDS011;6877;51.436;6.774;2023-02-28T10:49:05;7.43;;;3.20;;
13611;SDS011;6877;51.436;6.774;2023-02-28T10:55:31;5.97;;;3.38;;
13611;SDS011;6877;51.436;6.774;2023-02-28T11:01:59;5.18;;;3.63;;
13611;SDS011;6877;51.436;6.774;2023-02-28T11:04:32;5.32;;;3.08;;
13611;SDS011;6877;51.436;6.774;2023-02-28T11:07:20;5.88;;;2.85;;
13611;SDS011;6877;51.436;6.774;2023-02-28T11:10:16;4.78;;;3.00;;
13611;SDS011;6877;51.436;6.774;2023-02-28T11:12:54;2.67;;;2.47;;
13611;SDS011;6877;51.436;6.774;2023-02-28T11:15:28;6.70;;;3.00;;
13611;SDS011;6877;51.436;6.774;2023-02-28T11:20:52;5.97;;;2.95;;
13611;SDS011;6877;51.436;6.774;2023-02-28T11:23:27;6.85;;;2.90;;
13611;SDS011;6877;51.436;6.774;2023-02-28T11:26:03;6.22;;;2.75;;
13611;SDS011;6877;51.436;6.774;2023-02-28T11:28:38;3.47;;;2.53;;
13611;SDS011;6877;51.436;6.774;2023-02-28T11:33:44;3.45;;;2.45;;
13611;SDS011;6877;51.436;6.774;2023-02-28T11:38:52;6.30;;;3.05;;
13611;SDS011;6877;51.436;6.774;2023-02-28T11:44:05;3.63;;;2.50;;
13611;SDS011;6877;51.436;6.774;2023-02-28T11:52:01;2.80;;;2.60;;
13611;SDS011;6877;51.436;6.774;2023-02-28T12:00:08;3.95;;;3.05;;
13611;SDS011;6877;51.436;6.774;2023-02-28T12:03:07;5.45;;;2.97;;
13611;SDS011;6877;51.436;6.774;2023-02-28T12:05:41;3.65;;;3.00;;
13611;SDS011;6877;51.436;6.774;2023-02-28T12:13:26;4.93;;;3.88;;
13611;SDS011;6877;51.436;6.774;2023-02-28T12:21:43;3.53;;;2.92;;
13611;SDS011;6877;51.436;6.774;2023-02-28T12:24:22;4.65;;;3.25;;
13611;SDS011;6877;51.436;6.774;2023-02-28T12:26:55;7.20;;;3.17;;
13611;SDS011;6877;51.436;6.774;2023-02-28T12:29:33;4.03;;;3.10;;
13611;SDS011;6877;51.436;6.774;2023-02-28T12:32:09;5.07;;;3.25;;
13611;SDS011;6877;51.436;6.774;2023-02-28T12:34:48;6.50;;;4.25;;
13611;SDS011;6877;51.436;6.774;2023-02-28T12:37:22;4.53;;;3.70;;
13611;SDS011;6877;51.436;6.774;2023-02-28T12:40:11;8.30;;;3.30;;
13611;SDS011;6877;51.436;6.774;2023-02-28T12:42:57;4.50;;;3.65;;
13611;SDS011;6877;51.436;6.774;2023-02-28T12:45:40;8.38;;;3.85;;
13611;SDS011;6877;51.436;6.774;2023-02-28T12:48:15;6.22;;;3.45;;
13611;SDS011;6877;51.436;6.774;2023-02-28T12:50:47;6.38;;;4.05;;
13611;SDS011;6877;51.436;6.774;2023-02-28T13:10:49;6.75;;;4.90;;
13611;SDS011;6877;51.436;6.774;2023-02-28T13:13:21;5.65;;;3.67;;
13611;SDS011;6877;51.436;6.774;2023-02-28T13:18:40;9.10;;;4.30;;
13611;SDS011;6877;51.436;6.774;2023-02-28T13:21:26;6.03;;;4.53;;
13611;SDS011;6877;51.436;6.774;2023-02-28T13:42:49;8.90;;;4.60;;
13611;SDS011;6877;51.436;6.774;2023-02-28T13:45:23;8.43;;;5.35;;
13611;SDS011;6877;51.436;6.774;2023-02-28T13:48:00;7.05;;;4.35;;
13611;SDS011;6877;51.436;6.774;2023-02-28T13:50:46;6.55;;;4.72;;
13611;SDS011;6877;51.436;6.774;2023-02-28T13:56:33;6.97;;;4.10;;
13611;SDS011;6877;51.436;6.774;2023-02-28T14:01:49;5.00;;;4.45;;
13611;SDS011;6877;51.436;6.774;2023-02-28T14:07:17;5.93;;;4.72;;
13611;SDS011;6877;51.436;6.774;2023-02-28T14:09:56;3.95;;;3.55;;
13611;SDS011;6877;51.436;6.774;2023-02-28T14:15:36;7.55;;;5.13;;
13611;SDS011;6877;51.436;6.774;2023-02-28T14:20:39;5.15;;;4.65;;
13611;SDS011;6877;51.436;6.774;2023-02-28T14:23:09;6.40;;;4.85;;
13611;SDS011;6877;51.436;6.774;2023-02-28T14:25:56;6.07;;;4.60;;
13611;SDS011;6877;51.436;6.774;2023-02-28T14:36:52;6.18;;;4.70;;
13611;SDS011;6877;51.436;6.774;2023-02-28T14:39:24;5.20;;;4.70;;
13611;SDS011;6877;51.436;6.774;2023-02-28T14:41:57;8.50;;;4.70;;
13611;SDS011;6877;51.436;6.774;2023-02-28T14:44:35;5.80;;;4.82;;
13611;SDS011;6877;51.436;6.774;2023-02-28T14:47:02;6.28;;;4.60;;
13611;SDS011;6877;51.436;6.774;2023-02-28T14:49:41;5.78;;;4.93;;
13611;SDS011;6877;51.436;6.774;2023-02-28T14:52:23;8.43;;;4.22;;
13611;SDS011;6877;51.436;6.774;2023-02-28T14:54:54;7.20;;;4.70;;
13611;SDS011;6877;51.436;6.774;2023-02-28T14:57:33;8.57;;;7.25;;
13611;SDS011;6877;51.436;6.774;2023-02-28T15:02:41;12.82;;;5.30;;
13611;SDS011;6877;51.436;6.774;2023-02-28T15:07:44;9.30;;;5.30;;
13611;SDS011;6877;51.436;6.774;2023-02-28T15:13:07;5.22;;;4.68;;
13611;SDS011;6877;51.436;6.774;2023-02-28T15:15:53;8.85;;;4.88;;
13611;SDS011;6877;51.436;6.774;2023-02-28T15:21:04;5.32;;;4.30;;
13611;SDS011;6877;51.436;6.774;2023-02-28T15:23:39;6.13;;;4.70;;
13611;SDS011;6877;51.436;6.774;2023-02-28T15:26:10;7.15;;;6.15;;
13611;SDS011;6877;51.436;6.774;2023-02-28T15:28:49;6.53;;;5.35;;
13611;SDS011;6877;51.436;6.774;2023-02-28T15:31:27;8.65;;;6.43;;
13611;SDS011;6877;51.436;6.774;2023-02-28T15:34:03;13.57;;;5.80;;
13611;SDS011;6877;51.436;6.774;2023-02-28T15:36:31;5.80;;;4.97;;
13611;SDS011;6877;51.436;6.774;2023-02-28T15:39:16;6.68;;;5.28;;
13611;SDS011;6877;51.436;6.774;2023-02-28T15:41:45;6.25;;;4.80;;
13611;SDS011;6877;51.436;6.774;2023-02-28T15:47:06;11.18;;;5.55;;
13611;SDS011;6877;51.436;6.774;2023-02-28T15:49:53;5.55;;;4.90;;
13611;SDS011;6877;51.436;6.774;2023-02-28T15:52:28;7.78;;;5.78;;
13611;SDS011;6877;51.436;6.774;2023-02-28T15:55:22;8.80;;;5.68;;
13611;SDS011;6877;51.436;6.774;2023-02-28T15:57:53;6.90;;;4.85;;
13611;SDS011;6877;51.436;6.774;2023-02-28T16:00:25;6.40;;;5.13;;
13611;SDS011;6877;51.436;6.774;2023-02-28T16:02:58;6.78;;;4.95;;
13611;SDS011;6877;51.436;6.774;2023-02-28T16:05:30;5.53;;;4.82;;
13611;SDS011;6877;51.436;6.774;2023-02-28T16:07:58;10.55;;;5.50;;
13611;SDS011;6877;51.436;6.774;2023-02-28T16:10:31;5.63;;;4.18;;
13611;SDS011;6877;51.436;6.774;2023-02-28T16:12:58;5.32;;;4.80;;
13611;SDS011;6877;51.436;6.774;2023-02-28T16:15:31;6.55;;;5.35;;
13611;SDS011;6877;51.436;6.774;2023-02-28T16:18:08;7.60;;;5.45;;
13611;SDS011;6877;51.436;6.774;2023-02-28T16:20:42;6.22;;;5.00;;
13611;SDS011;6877;51.436;6.774;2023-02-28T16:23:10;7.38;;;5.22;;
13611;SDS011;6877;51.436;6.774;2023-02-28T16:25:42;10.57;;;5.28;;
13611;SDS011;6877;51.436;6.774;2023-02-28T16:30:53;6.20;;;4.82;;
13611;SDS011;6877;51.436;6.774;2023-02-28T16:33:21;7.88;;;4.95;;
13611;SDS011;6877;51.436;6.774;2023-02-28T16:35:50;5.93;;;5.30;;
13611;SDS011;6877;51.436;6.774;2023-02-28T16:38:16;7.43;;;5.20;;
13611;SDS011;6877;51.436;6.774;2023-02-28T16:40:43;23.15;;;6.57;;
13611;SDS011;6877;51.436;6.774;2023-02-28T16:43:19;9.32;;;5.30;;
13611;SDS011;6877;51.436;6.774;2023-02-28T16:45:49;7.22;;;5.65;;
13611;SDS011;6877;51.436;6.774;2023-02-28T16:48:21;8.88;;;4.90;;
13611;SDS011;6877;51.436;6.774;2023-02-28T16:50:48;7.05;;;4.65;;
13611;SDS011;6877;51.436;6.774;2023-02-28T16:53:19;7.90;;;5.25;;
13611;SDS011;6877;51.436;6.774;2023-02-28T16:55:45;7.72;;;5.57;;
13611;SDS011;6877;51.436;6.774;2023-02-28T16:58:14;10.32;;;5.78;;
13611;SDS011;6877;51.436;6.774;2023-02-28T17:00:42;8.77;;;5.25;;
13611;SDS011;6877;51.436;6.774;2023-02-28T17:03:27;8.57;;;4.93;;
13611;SDS011;6877;51.436;6.774;2023-02-28T17:05:57;9.70;;;5.55;;
13611;SDS011;6877;51.436;6.774;2023-02-28T17:08:24;5.88;;;4.32;;
13611;SDS011;6877;51.436;6.774;2023-02-28T17:10:50;6.68;;;4.88;;
13611;SDS011;6877;51.436;6.774;2023-02-28T17:13:18;6.70;;;4.53;;
13611;SDS011;6877;51.436;6.774;2023-02-28T17:15:45;10.50;;;5.50;;
13611;SDS011;6877;51.436;6.774;2023-02-28T17:18:16;5.88;;;5.03;;
13611;SDS011;6877;51.436;6.774;2023-02-28T17:20:48;9.85;;;4.43;;
13611;SDS011;6877;51.436;6.774;2023-02-28T17:23:15;9.00;;;4.72;;
13611;SDS011;6877;51.436;6.774;2023-02-28T17:25:42;7.05;;;4.95;;
13611;SDS011;6877;51.436;6.774;2023-02-28T17:28:24;9.40;;;5.55;;
13611;SDS011;6877;51.436;6.774;2023-02-28T17:30:51;6.00;;;4.78;;
13611;SDS011;6877;51.436;6.774;2023-02-28T17:33:17;7.60;;;4.90;;
13611;SDS011;6877;51.436;6.774;2023-02-28T17:35:44;7.43;;;4.78;;
13611;SDS011;6877;51.436;6.774;2023-02-28T17:38:14;6.57;;;4.53;;
13611;SDS011;6877;51.436;6.774;2023-02-28T17:40:43;5.70;;;4.60;;
13611;SDS011;6877;51.436;6.774;2023-02-28T17:43:10;9.82;;;4.80;;
13611;SDS011;6877;51.436;6.774;2023-02-28T17:45:37;8.35;;;5.45;;
13611;SDS011;6877;51.436;6.774;2023-02-28T17:48:03;5.03;;;4.35;;
13611;SDS011;6877;51.436;6.774;2023-02-28T17:50:30;13.80;;;5.63;;
13611;SDS011;6877;51.436;6.774;2023-02-28T17:52:57;11.85;;;5.10;;
13611;SDS011;6877;51.436;6.774;2023-02-28T17:55:29;9.13;;;5.15;;
13611;SDS011;6877;51.436;6.774;2023-02-28T17:57:56;7.75;;;5.72;;
13611;SDS011;6877;51.436;6.774;2023-02-28T18:00:22;11.13;;;5.80;;
13611;SDS011;6877;51.436;6.774;2023-02-28T18:02:50;7.93;;;5.20;;
13611;SDS011;6877;51.436;6.774;2023-02-28T18:05:17;9.68;;;5.40;;
13611;SDS011;6877;51.436;6.774;2023-02-28T18:07:43;8.00;;;5.40;;
13611;SDS011;6877;51.436;6.774;2023-02-28T18:10:16;8.98;;;5.30;;
13611;SDS011;6877;51.436;6.774;2023-02-28T18:12:53;7.80;;;5.70;;
13611;SDS011;6877;51.436;6.774;2023-02-28T18:15:20;11.27;;;5.85;;
13611;SDS011;6877;51.436;6.774;2023-02-28T18:17:48;9.77;;;5.38;;
13611;SDS011;6877;51.436;6.774;2023-02-28T18:20:15;8.10;;;5.53;;
13611;SDS011;6877;51.436;6.774;2023-02-28T18:22:47;8.88;;;5.28;;
13611;SDS011;6877;51.436;6.774;2023-02-28T18:25:14;7.80;;;5.45;;
13611;SDS011;6877;51.436;6.774;2023-02-28T18:27:42;9.82;;;6.00;;
13611;SDS011;6877;51.436;6.774;2023-02-28T18:30:19;7.10;;;4.95;;